createdAt,value
2023-10-09T00:00:00.216Z, 95.7
2023-10-09T00:02:00.297Z, 94.9
2023-10-09T00:04:00.276Z, 94
2023-10-09T00:06:00.205Z, 92.9
2023-10-09T00:08:00.148Z, 92.3
2023-10-09T00:10:00.126Z, 92.8
2023-10-09T00:12:00.158Z, 93.5
2023-10-09T00:14:00.105Z, 94.1
2023-10-09T00:16:00.124Z, 94.7
2023-10-09T00:18:00.269Z, 94.3
2023-10-09T00:20:00.199Z, 93.4
2023-10-09T00:22:00.114Z, 93.4
2023-10-09T00:24:00.146Z, 94.4
2023-10-09T00:26:00.102Z, 94.6
2023-10-09T00:28:00.109Z, 94.6
2023-10-09T00:30:00.222Z, 94.2
2023-10-09T00:32:00.105Z, 93.5
2023-10-09T00:34:00.136Z, 93
2023-10-09T00:36:00.170Z, 92.3
2023-10-09T00:38:00.109Z, 92.6
2023-10-09T00:40:00.093Z, 93.7
2023-10-09T00:42:00.249Z, 94.1
2023-10-09T00:44:00.665Z, 93.7
2023-10-09T00:46:00.128Z, 93.3
2023-10-09T00:48:00.399Z, 92.9
2023-10-09T00:50:00.140Z, 92.3
2023-10-09T00:52:00.121Z, 92.8
2023-10-09T00:54:00.151Z, 92.7
2023-10-09T00:56:00.087Z, 92.9
2023-10-09T00:58:00.088Z, 92.5
2023-10-09T01:00:00.207Z, 91.7
2023-10-09T01:02:00.164Z, 90.9
2023-10-09T01:04:00.203Z, 90.5
2023-10-09T01:06:00.223Z, 89.7
2023-10-09T01:08:00.100Z, 90
2023-10-09T01:10:00.116Z, 90.5
2023-10-09T01:12:00.226Z, 90.7
2023-10-09T01:14:00.079Z, 90.1
2023-10-09T01:16:00.109Z, 90.2
2023-10-09T01:18:00.302Z, 91.1
2023-10-09T01:20:00.207Z, 90.8
2023-10-09T01:22:00.077Z, 92.3
2023-10-09T01:24:00.307Z, 94.3
2023-10-09T01:26:00.167Z, 95.9
2023-10-09T01:28:00.141Z, 97.4
2023-10-09T01:30:00.258Z, 98.3
2023-10-09T01:32:00.109Z, 97.1
2023-10-09T01:34:00.204Z, 95.9
2023-10-09T01:36:00.141Z, 95.1
2023-10-09T01:38:00.124Z, 94.4
2023-10-09T01:40:00.111Z, 95.8
2023-10-09T01:42:00.257Z, 97.6
2023-10-09T01:44:00.104Z, 98.9
2023-10-09T01:46:00.169Z, 99
2023-10-09T01:48:00.312Z, 99.1
2023-10-09T01:50:00.196Z, 98.9
2023-10-09T01:52:00.077Z, 98.7
2023-10-09T01:54:00.164Z, 98
2023-10-09T01:56:00.103Z, 98.1
2023-10-09T01:58:00.243Z, 98.4
2023-10-09T02:00:00.334Z, 98.4
2023-10-09T02:02:00.108Z, 98
2023-10-09T02:04:00.185Z, 98
2023-10-09T02:06:00.171Z, 98.8
2023-10-09T02:08:00.128Z, 99.3
2023-10-09T02:10:00.143Z, 97.2
2023-10-09T02:12:00.136Z, 96.6
2023-10-09T02:14:00.098Z, 96.3
2023-10-09T02:16:00.253Z, 95.4
2023-10-09T02:18:00.426Z, 94.8
2023-10-09T02:20:00.209Z, 94
2023-10-09T02:22:00.141Z, 93.3
2023-10-09T02:24:00.188Z, 93.6
2023-10-09T02:26:00.099Z, 93.7
2023-10-09T02:28:00.127Z, 94.3
2023-10-09T02:30:00.267Z, 94.1
2023-10-09T02:32:00.094Z, 94.1
2023-10-09T02:34:00.095Z, 93.5
2023-10-09T02:36:00.166Z, 92.8
2023-10-09T02:38:00.100Z, 93.3
2023-10-09T02:40:00.139Z, 93.3
2023-10-09T02:42:00.152Z, 92.1
2023-10-09T02:44:00.147Z, 91.6
2023-10-09T02:46:00.110Z, 92.2
2023-10-09T02:48:00.285Z, 92
2023-10-09T02:50:00.156Z, 91.9
2023-10-09T02:52:00.094Z, 92.1
2023-10-09T02:54:00.171Z, 91.9
2023-10-09T02:56:00.116Z, 92.4
2023-10-09T02:58:00.077Z, 93
2023-10-09T03:00:00.180Z, 93
2023-10-09T03:02:00.085Z, 92.5
2023-10-09T03:04:00.201Z, 92.9
2023-10-09T03:06:00.174Z, 93.3
2023-10-09T03:08:00.105Z, 93.4
2023-10-09T03:10:00.123Z, 93
2023-10-09T03:12:00.134Z, 92.7
2023-10-09T03:14:00.149Z, 92.2
2023-10-09T03:16:00.110Z, 91.6
2023-10-09T03:18:00.297Z, 91.3
2023-10-09T03:20:00.158Z, 90.9
2023-10-09T03:22:00.120Z, 91.3
2023-10-09T03:24:00.194Z, 92.1
2023-10-09T03:26:14.863Z, 91.6
2023-10-09T03:28:00.171Z, 91.6
2023-10-09T03:30:00.234Z, 91
2023-10-09T03:32:00.182Z, 91.2
2023-10-09T03:34:00.100Z, 91.7
2023-10-09T03:36:00.188Z, 91.8
2023-10-09T03:38:00.194Z, 92
2023-10-09T03:40:00.244Z, 92.1
2023-10-09T03:42:00.168Z, 92.8
2023-10-09T03:44:00.096Z, 93.7
2023-10-09T03:46:00.115Z, 93
2023-10-09T03:48:00.298Z, 91.5
2023-10-09T03:50:00.140Z, 91.1
2023-10-09T03:52:00.164Z, 90.8
2023-10-09T03:54:00.238Z, 89.3
2023-10-09T03:56:00.105Z, 89.4
2023-10-09T03:58:00.103Z, 89.7
2023-10-09T04:00:00.241Z, 89.7
2023-10-09T04:02:00.101Z, 89.9
2023-10-09T04:04:00.265Z, 91
2023-10-09T04:06:00.149Z, 93.3
2023-10-09T04:08:00.122Z, 94.8
2023-10-09T04:10:00.116Z, 95.8
2023-10-09T04:12:00.132Z, 95.9
2023-10-09T04:14:00.100Z, 96
2023-10-09T04:16:00.116Z, 94.5
2023-10-09T04:18:00.209Z, 93.8
2023-10-09T04:20:00.148Z, 92.8
2023-10-09T04:22:00.092Z, 92.3
2023-10-09T04:24:00.421Z, 91.4
2023-10-09T04:26:00.108Z, 91.2
2023-10-09T04:28:00.100Z, 90.9
2023-10-09T04:30:00.181Z, 90.6
2023-10-09T04:32:00.111Z, 90.7
2023-10-09T04:34:00.108Z, 90.8
2023-10-09T04:36:00.142Z, 91.6
2023-10-09T04:38:00.101Z, 90.7
2023-10-09T04:40:00.159Z, 91.4
2023-10-09T04:42:00.202Z, 91.6
2023-10-09T04:44:00.117Z, 92
2023-10-09T04:46:00.119Z, 91.6
2023-10-09T04:48:00.305Z, 92
2023-10-09T04:50:00.121Z, 91.9
2023-10-09T04:52:00.107Z, 91.4
2023-10-09T04:54:00.155Z, 90
2023-10-09T04:56:00.099Z, 89
2023-10-09T04:58:01.992Z, 89.5
2023-10-09T05:00:00.288Z, 89.4
2023-10-09T05:02:00.371Z, 88.9
2023-10-09T05:04:00.216Z, 88.9
2023-10-09T05:06:00.285Z, 88.5
2023-10-09T05:08:00.083Z, 87.6
2023-10-09T05:10:00.135Z, 87.8
2023-10-09T05:12:00.155Z, 87.8
2023-10-09T05:14:00.113Z, 88.3
2023-10-09T05:16:00.162Z, 88.2
2023-10-09T05:18:00.208Z, 87.6
2023-10-09T05:20:00.107Z, 87.4
2023-10-09T05:22:00.077Z, 88.3
2023-10-09T05:24:00.161Z, 88.2
2023-10-09T05:26:00.424Z, 87.2
2023-10-09T05:28:00.082Z, 88
2023-10-09T05:30:00.232Z, 88.5
2023-10-09T05:32:00.172Z, 88.8
2023-10-09T05:34:00.213Z, 89
2023-10-09T05:36:00.144Z, 88.3
2023-10-09T05:38:00.093Z, 88.1
2023-10-09T05:40:00.135Z, 88.3
2023-10-09T05:42:00.116Z, 88.1
2023-10-09T05:44:00.098Z, 88.2
2023-10-09T05:46:00.252Z, 88.3
2023-10-09T05:48:00.153Z, 88.1
2023-10-09T05:50:00.133Z, 88
2023-10-09T05:52:00.082Z, 88.3
2023-10-09T05:54:00.109Z, 88.2
2023-10-09T05:56:00.087Z, 87.5
2023-10-09T05:58:00.091Z, 87.3
2023-10-09T06:00:00.233Z, 87.3
2023-10-09T06:02:00.185Z, 86.2
2023-10-09T06:04:00.320Z, 86.4
2023-10-09T06:06:00.110Z, 86.7
2023-10-09T06:08:00.174Z, 86.2
2023-10-09T06:10:00.167Z, 86.1
2023-10-09T06:12:00.180Z, 86.2
2023-10-09T06:14:00.088Z, 86.1
2023-10-09T06:16:00.202Z, 85.9
2023-10-09T06:18:00.135Z, 86.1
2023-10-09T06:20:00.290Z, 86
2023-10-09T06:22:00.119Z, 86.9
2023-10-09T06:24:00.135Z, 87.8
2023-10-09T06:26:00.113Z, 88.8
2023-10-09T06:28:00.092Z, 89.4
2023-10-09T06:30:00.171Z, 88.1
2023-10-09T06:32:00.301Z, 88.7
2023-10-09T06:34:00.195Z, 89.4
2023-10-09T06:36:00.107Z, 90.4
2023-10-09T06:38:00.369Z, 90.6
2023-10-09T06:40:00.140Z, 90.4
2023-10-09T06:42:00.102Z, 90.1
2023-10-09T06:44:00.109Z, 90.8
2023-10-09T06:46:00.178Z, 90.9
2023-10-09T06:48:00.164Z, 90.8
2023-10-09T06:50:00.142Z, 89.9
2023-10-09T06:52:00.079Z, 89.2
2023-10-09T06:54:00.136Z, 88.8
2023-10-09T06:56:00.115Z, 88.8
2023-10-09T06:58:00.094Z, 88.1
2023-10-09T07:00:00.138Z, 89.3
2023-10-09T07:02:00.079Z, 89.2
2023-10-09T07:04:00.220Z, 90.2
2023-10-09T07:06:00.141Z, 90.5
2023-10-09T07:08:00.103Z, 90.9
2023-10-09T07:10:00.131Z, 91.9
2023-10-09T07:12:00.196Z, 93.1
2023-10-09T07:14:00.083Z, 93.4
2023-10-09T07:16:00.166Z, 93.3
2023-10-09T07:18:00.127Z, 91.9
2023-10-09T07:20:00.180Z, 88.1
2023-10-09T07:22:00.101Z, 87.4
2023-10-09T07:24:00.135Z, 88.2
2023-10-09T07:26:00.143Z, 88.8
2023-10-09T07:28:00.108Z, 88
2023-10-09T07:30:00.144Z, 86.6
2023-10-09T07:32:00.087Z, 85.2
2023-10-09T07:34:00.090Z, 84.6
2023-10-09T07:36:00.112Z, 85.5
2023-10-09T07:38:00.097Z, 85.4
2023-10-09T07:40:00.088Z, 85.1
2023-10-09T07:42:00.198Z, 85.5
2023-10-09T07:44:00.115Z, 85.7
2023-10-09T07:46:00.308Z, 85
2023-10-09T07:48:00.135Z, 84.7
2023-10-09T07:50:00.204Z, 84.6
2023-10-09T07:52:00.149Z, 82.9
2023-10-09T07:54:00.114Z, 81.8
2023-10-09T07:56:00.097Z, 81.1
2023-10-09T07:58:00.085Z, 81
2023-10-09T08:00:00.167Z, 80.4
2023-10-09T08:02:00.139Z, 81.2
2023-10-09T08:04:00.172Z, 82.3
2023-10-09T08:06:00.381Z, 82
2023-10-09T08:08:04.700Z, 82.2
2023-10-09T08:10:00.140Z, 81.9
2023-10-09T08:12:00.098Z, 82
2023-10-09T08:14:00.141Z, 81.4
2023-10-09T08:16:00.230Z, 81.2
2023-10-09T08:18:00.257Z, 82.3
2023-10-09T08:20:00.131Z, 82.3
2023-10-09T08:22:00.094Z, 81.8
2023-10-09T08:24:00.133Z, 81.7
2023-10-09T08:26:00.109Z, 82.1
2023-10-09T08:28:00.075Z, 81.6
2023-10-09T08:30:00.105Z, 81.3
2023-10-09T08:32:00.092Z, 81.2
2023-10-09T08:36:00.230Z, 84.1
2023-10-09T08:38:00.133Z, 85.1
2023-10-09T08:40:00.111Z, 85
2023-10-09T08:42:00.116Z, 83.4
2023-10-09T08:44:00.159Z, 82.7
2023-10-09T08:46:00.167Z, 81.7
2023-10-09T08:48:00.201Z, 79.6
2023-10-09T08:50:00.240Z, 76.1
2023-10-09T08:52:00.089Z, 74.6
2023-10-09T08:54:00.199Z, 73.7
2023-10-09T08:56:00.163Z, 73.8
2023-10-09T08:58:00.208Z, 72.7
2023-10-09T09:00:00.193Z, 71.5
2023-10-09T09:02:00.148Z, 72.2
2023-10-09T09:04:00.170Z, 72.7
2023-10-09T09:06:00.099Z, 73.3
2023-10-09T09:08:00.235Z, 74.5
2023-10-09T09:10:00.114Z, 75
2023-10-09T09:12:00.106Z, 74.5
2023-10-09T09:14:00.275Z, 73.4
2023-10-09T09:16:00.110Z, 72.5
2023-10-09T09:18:00.194Z, 70.4
2023-10-09T09:20:00.259Z, 69.6
2023-10-09T09:22:00.077Z, 69.9
2023-10-09T09:24:00.166Z, 71.6
2023-10-09T09:26:00.196Z, 73.8
2023-10-09T09:28:00.091Z, 74.8
2023-10-09T09:30:00.153Z, 76.1
2023-10-09T09:32:00.140Z, 77.7
2023-10-09T09:34:00.123Z, 80
2023-10-09T09:36:00.154Z, 80.3
2023-10-09T09:38:00.114Z, 81.4
2023-10-09T09:40:00.104Z, 81.3
2023-10-09T09:42:00.117Z, 82.5
2023-10-09T09:44:00.143Z, 83.1
2023-10-09T09:46:02.431Z, 82.6
2023-10-09T09:48:00.193Z, 82.7
2023-10-09T09:50:00.145Z, 82.9
2023-10-09T09:52:00.090Z, 81.4
2023-10-09T09:54:00.146Z, 82.1
2023-10-09T09:56:00.212Z, 81.1
2023-10-09T09:58:00.115Z, 79.1
2023-10-09T10:00:00.174Z, 77.2
2023-10-09T10:02:00.165Z, 76.4
2023-10-09T10:04:00.084Z, 75.5
2023-10-09T10:06:00.113Z, 75
2023-10-09T10:08:00.199Z, 74.1
2023-10-09T10:10:00.145Z, 72.9
2023-10-09T10:12:00.111Z, 73.3
2023-10-09T10:14:00.205Z, 74.4
2023-10-09T10:16:00.110Z, 71.9
2023-10-09T10:18:00.397Z, 72.2
2023-10-09T10:20:00.146Z, 71.5
2023-10-09T10:22:00.101Z, 70.7
2023-10-09T10:24:00.111Z, 70.7
2023-10-09T10:26:00.133Z, 69
2023-10-09T10:28:00.101Z, 67
2023-10-09T10:30:00.211Z, 66.3
2023-10-09T10:32:00.114Z, 64.2
2023-10-09T10:34:00.109Z, 64.3
2023-10-09T10:36:00.099Z, 63.3
2023-10-09T10:38:00.143Z, 64.5
2023-10-09T10:40:00.136Z, 63.9
2023-10-09T10:42:00.103Z, 61.4
2023-10-09T10:44:00.161Z, 61.2
2023-10-09T10:46:00.159Z, 61.3
2023-10-09T10:48:00.204Z, 62
2023-10-09T10:50:00.626Z, 61
2023-10-09T10:52:00.079Z, 60.4
2023-10-09T10:54:00.286Z, 59.8
2023-10-09T10:56:00.126Z, 60.3
2023-10-09T10:58:00.075Z, 59.1
2023-10-09T11:00:00.194Z, 58.4
2023-10-09T11:02:00.243Z, 58.6
2023-10-09T11:04:00.475Z, 59.6
2023-10-09T11:06:00.181Z, 58.7
2023-10-09T11:08:00.435Z, 57.5
2023-10-09T11:10:00.996Z, 58.4
2023-10-09T11:12:00.385Z, 58.6
2023-10-09T11:14:00.251Z, 58.8
2023-10-09T11:16:00.191Z, 57.2
2023-10-09T11:18:01.307Z, 56.6
2023-10-09T11:20:00.299Z, 57.4
2023-10-09T11:22:00.164Z, 57.7
2023-10-09T11:24:00.140Z, 57.3
2023-10-09T11:26:00.220Z, 57.7
2023-10-09T11:28:00.085Z, 57.5
2023-10-09T11:30:00.117Z, 55.8
2023-10-09T11:32:00.136Z, 56.2
2023-10-09T11:34:00.284Z, 55.2
2023-10-09T11:36:00.207Z, 54.6
2023-10-09T11:38:00.149Z, 55.2
2023-10-09T11:40:00.104Z, 54.6
2023-10-09T11:42:00.143Z, 53.9
2023-10-09T11:44:00.185Z, 54.2
2023-10-09T11:46:00.164Z, 52.7
2023-10-09T11:48:00.493Z, 53.5
2023-10-09T11:50:00.419Z, 52
2023-10-09T11:52:00.547Z, 53.1
2023-10-09T11:54:00.406Z, 53.5
2023-10-09T11:56:00.179Z, 53.7
2023-10-09T11:58:00.129Z, 52.8
2023-10-09T12:00:00.242Z, 53.3
2023-10-09T12:02:00.163Z, 52.9
2023-10-09T12:04:00.243Z, 52.6
2023-10-09T12:06:00.109Z, 51.9
2023-10-09T12:08:00.129Z, 52.6
2023-10-09T12:10:00.125Z, 53.8
2023-10-09T12:12:04.260Z, 52.2
2023-10-09T12:14:00.115Z, 53.7
2023-10-09T12:16:00.098Z, 53.7
2023-10-09T12:18:00.113Z, 52.9
2023-10-09T12:20:00.233Z, 52.8
2023-10-09T12:22:00.103Z, 53.1
2023-10-09T12:24:02.712Z, 52.5
2023-10-09T12:26:00.195Z, 52.6
2023-10-09T12:28:00.094Z, 52.8
2023-10-09T12:30:00.138Z, 51.9
2023-10-09T12:32:00.103Z, 51.6
2023-10-09T12:34:00.240Z, 52.6
2023-10-09T12:36:00.211Z, 52.5
2023-10-09T12:38:00.148Z, 52.5
2023-10-09T12:40:00.136Z, 52.5
2023-10-09T12:42:00.124Z, 52.4
2023-10-09T12:44:00.206Z, 52.6
2023-10-09T12:46:00.094Z, 52.8
2023-10-09T12:48:00.642Z, 52.3
2023-10-09T12:50:00.553Z, 52.6
2023-10-09T12:52:00.083Z, 51.9
2023-10-09T12:54:00.128Z, 53.2
2023-10-09T12:56:00.171Z, 52.8
2023-10-09T12:58:00.111Z, 53.2
2023-10-09T13:00:00.142Z, 52
2023-10-09T13:02:00.256Z, 52.2
2023-10-09T13:04:00.153Z, 51.6
2023-10-09T13:06:00.119Z, 51.2
2023-10-09T13:08:00.197Z, 50.3
2023-10-09T13:10:00.184Z, 50.6
2023-10-09T13:12:00.119Z, 50.1
2023-10-09T13:14:00.110Z, 51.3
2023-10-09T13:16:00.109Z, 49.6
2023-10-09T13:18:00.187Z, 48.1
2023-10-09T13:20:00.227Z, 48.3
2023-10-09T13:22:00.093Z, 49
2023-10-09T13:24:00.121Z, 48.7
2023-10-09T13:26:00.189Z, 47.8
2023-10-09T13:28:00.103Z, 48.4
2023-10-09T13:30:00.181Z, 49.5
2023-10-09T13:32:00.347Z, 49
2023-10-09T13:34:00.174Z, 49.7
2023-10-09T13:36:00.133Z, 50.6
2023-10-09T13:38:00.137Z, 51.5
2023-10-09T13:40:00.120Z, 51.9
2023-10-09T13:42:01.147Z, 51.8
2023-10-09T13:44:00.169Z, 51.2
2023-10-09T13:46:00.125Z, 50.4
2023-10-09T13:48:00.160Z, 51.6
2023-10-09T13:50:00.162Z, 50.4
2023-10-09T13:52:00.139Z, 51.4
2023-10-09T13:54:00.108Z, 51.7
2023-10-09T13:56:00.272Z, 51.8
2023-10-09T13:58:00.145Z, 51.7
2023-10-09T14:00:00.205Z, 52.8
2023-10-09T14:02:00.116Z, 53.2
2023-10-09T14:04:00.477Z, 52.6
2023-10-09T14:06:00.144Z, 53.6
2023-10-09T14:08:00.128Z, 54.2
2023-10-09T14:10:00.117Z, 53.7
2023-10-09T14:12:00.103Z, 53
2023-10-09T14:14:11.407Z, 51.9
2023-10-09T14:16:00.152Z, 52.6
2023-10-09T14:18:00.126Z, 52.8
2023-10-09T14:20:00.183Z, 53.3
2023-10-09T14:22:00.111Z, 52.5
2023-10-09T14:24:00.124Z, 52.2
2023-10-09T14:26:00.129Z, 52.1
2023-10-09T14:28:00.078Z, 52.5
2023-10-09T14:30:00.226Z, 52.9
2023-10-09T14:32:00.187Z, 52.8
2023-10-09T14:34:00.110Z, 53.3
2023-10-09T14:36:00.097Z, 52.8
2023-10-09T14:38:00.138Z, 52.1
2023-10-09T14:40:00.368Z, 52.5
2023-10-09T14:42:00.107Z, 52.4
2023-10-09T14:44:00.265Z, 52.5
2023-10-09T14:46:00.187Z, 52.8
2023-10-09T14:48:00.237Z, 52.9
2023-10-09T14:50:00.245Z, 52.6
2023-10-09T14:52:00.110Z, 52.3
2023-10-09T14:54:00.110Z, 52.7
2023-10-09T14:56:00.174Z, 52.1
2023-10-09T14:58:00.603Z, 51.9
2023-10-09T15:00:00.130Z, 52.2
2023-10-09T15:02:00.161Z, 52.1
2023-10-09T15:04:00.147Z, 52.5
2023-10-09T15:06:00.114Z, 52.5
2023-10-09T15:08:00.106Z, 52.5
2023-10-09T15:10:00.145Z, 53.1
2023-10-09T15:12:00.113Z, 53.6
2023-10-09T15:14:00.175Z, 53.4
2023-10-09T15:16:00.205Z, 54
2023-10-09T15:18:00.191Z, 55.3
2023-10-09T15:20:00.165Z, 56.2
2023-10-09T15:22:00.245Z, 56.2
2023-10-09T15:24:00.110Z, 57
2023-10-09T15:26:00.157Z, 57.4
2023-10-09T15:28:00.116Z, 55.5
2023-10-09T15:30:00.145Z, 56
2023-10-09T15:32:00.168Z, 55.7
2023-10-09T15:34:00.127Z, 54.5
2023-10-09T15:36:00.111Z, 55.5
2023-10-09T15:38:00.132Z, 55.9
2023-10-09T15:40:00.120Z, 56.6
2023-10-09T15:42:00.140Z, 57.5
2023-10-09T15:44:00.147Z, 59.9
2023-10-09T15:46:00.198Z, 61.7
2023-10-09T15:48:00.149Z, 62.5
2023-10-09T15:50:00.210Z, 63.1
2023-10-09T15:52:00.122Z, 63.3
2023-10-09T15:54:00.175Z, 64.4
2023-10-09T15:56:00.120Z, 65.3
2023-10-09T15:58:00.132Z, 65.6
2023-10-09T16:00:00.161Z, 65.1
2023-10-09T16:02:00.153Z, 64.4
2023-10-09T16:04:00.168Z, 63.7
2023-10-09T16:06:00.312Z, 62.9
2023-10-09T16:08:00.089Z, 63.1
2023-10-09T16:10:00.145Z, 63.3
2023-10-09T16:12:00.157Z, 63.3
2023-10-09T16:14:00.123Z, 63.3
2023-10-09T16:16:00.150Z, 63.1
2023-10-09T16:18:00.459Z, 62.6
2023-10-09T16:20:00.142Z, 61.8
2023-10-09T16:22:00.118Z, 61.1
2023-10-09T16:24:00.164Z, 60.7
2023-10-09T16:28:00.192Z, 59.9
2023-10-09T16:30:00.235Z, 60.2
2023-10-09T16:32:00.222Z, 60.1
2023-10-09T16:34:00.093Z, 61.1
2023-10-09T16:36:00.127Z, 61.9
2023-10-09T16:38:00.119Z, 62.6
2023-10-09T16:40:00.102Z, 63.6
2023-10-09T16:42:00.108Z, 63.7
2023-10-09T16:44:00.112Z, 63.4
2023-10-09T16:46:00.208Z, 64
2023-10-09T16:48:00.455Z, 64
2023-10-09T16:50:00.172Z, 63.8
2023-10-09T16:52:00.106Z, 63.2
2023-10-09T16:54:00.214Z, 63.5
2023-10-09T16:56:00.136Z, 63.2
2023-10-09T16:58:00.083Z, 63.7
2023-10-09T17:00:00.147Z, 64.1
2023-10-09T17:02:00.220Z, 64.4
2023-10-09T17:04:00.128Z, 63.9
2023-10-09T17:06:00.100Z, 64.5
2023-10-09T17:08:00.157Z, 64.9
2023-10-09T17:10:00.130Z, 64.6
2023-10-09T17:12:00.107Z, 64.4
2023-10-09T17:14:00.136Z, 63.9
2023-10-09T17:16:00.152Z, 64.1
2023-10-09T17:18:00.299Z, 64.5
2023-10-09T17:20:00.151Z, 64.1
2023-10-09T17:22:00.121Z, 64.3
2023-10-09T17:24:00.137Z, 64.7
2023-10-09T17:26:00.208Z, 66.2
2023-10-09T17:28:00.126Z, 67.8
2023-10-09T17:30:00.144Z, 68.7
2023-10-09T17:32:00.124Z, 69.5
2023-10-09T17:34:00.082Z, 69.4
2023-10-09T17:36:00.099Z, 70.3
2023-10-09T17:38:00.208Z, 70.7
2023-10-09T17:40:00.113Z, 71.3
2023-10-09T17:42:00.161Z, 71.5
2023-10-09T17:44:00.124Z, 71.7
2023-10-09T17:46:00.068Z, 72
2023-10-09T17:48:01.556Z, 72.2
2023-10-09T17:50:00.211Z, 72.1
2023-10-09T17:52:00.080Z, 72.9
2023-10-09T17:54:00.084Z, 73.9
2023-10-09T17:56:00.305Z, 74.5
2023-10-09T17:58:00.069Z, 74.4
2023-10-09T18:00:00.107Z, 73.9
2023-10-09T18:02:00.260Z, 73.3
2023-10-09T18:04:00.435Z, 72.7
2023-10-09T18:06:00.102Z, 72.3
2023-10-09T18:08:00.141Z, 71.3
2023-10-09T18:10:00.232Z, 70.3
2023-10-09T18:12:00.104Z, 69.6
2023-10-09T18:14:00.144Z, 68.6
2023-10-09T18:16:00.332Z, 68.4
2023-10-09T18:18:00.228Z, 67.7
2023-10-09T18:20:00.112Z, 67.4
2023-10-09T18:22:00.089Z, 67.6
2023-10-09T18:24:00.103Z, 67.2
2023-10-09T18:26:00.218Z, 65.8
2023-10-09T18:28:00.101Z, 65.2
2023-10-09T18:30:00.171Z, 64.7
2023-10-09T18:32:00.127Z, 65.8
2023-10-09T18:34:00.093Z, 65.2
2023-10-09T18:36:00.234Z, 65.8
2023-10-09T18:38:00.198Z, 66
2023-10-09T18:40:00.290Z, 66
2023-10-09T18:42:00.117Z, 67.2
2023-10-09T18:44:00.125Z, 66.8
2023-10-09T18:46:00.238Z, 67.5
2023-10-09T18:48:00.312Z, 67.6
2023-10-09T18:50:00.188Z, 67.7
2023-10-09T18:52:00.140Z, 67.2
2023-10-09T18:54:00.111Z, 66.4
2023-10-09T18:56:00.216Z, 66.4
2023-10-09T18:58:00.110Z, 65.6
2023-10-09T19:00:00.182Z, 64.9
2023-10-09T19:02:00.156Z, 64.9
2023-10-09T19:04:00.087Z, 65.2
2023-10-09T19:06:00.117Z, 66.7
2023-10-09T19:08:00.127Z, 65.4
2023-10-09T19:10:00.127Z, 66
2023-10-09T19:12:00.178Z, 67.5
2023-10-09T19:14:00.121Z, 66.1
2023-10-09T19:16:00.416Z, 65.7
2023-10-09T19:18:00.276Z, 64.9
2023-10-09T19:20:00.156Z, 65.9
2023-10-09T19:22:00.088Z, 65
2023-10-09T19:24:00.111Z, 65.8
2023-10-09T19:26:00.241Z, 66.4
2023-10-09T19:28:00.101Z, 67.5
2023-10-09T19:30:00.193Z, 68.8
2023-10-09T19:32:00.122Z, 69.8
2023-10-09T19:34:00.116Z, 69.5
2023-10-09T19:36:00.193Z, 69.7
2023-10-09T19:38:00.177Z, 70.1
2023-10-09T19:40:00.141Z, 70.3
2023-10-09T19:42:00.136Z, 71.8
2023-10-09T19:44:00.202Z, 72.8
2023-10-09T19:46:00.334Z, 73.1
2023-10-09T19:48:00.210Z, 73.9
2023-10-09T19:50:00.246Z, 74.1
2023-10-09T19:52:00.133Z, 73.8
2023-10-09T19:54:00.124Z, 74.7
2023-10-09T19:56:00.451Z, 75.1
2023-10-09T19:58:00.084Z, 75.3
2023-10-09T20:00:00.148Z, 76.1
2023-10-09T20:02:00.206Z, 76.3
2023-10-09T20:04:00.116Z, 76.8
2023-10-09T20:06:00.433Z, 77.5
2023-10-09T20:08:00.258Z, 77.5
2023-10-09T20:10:00.229Z, 77.4
2023-10-09T20:12:00.129Z, 77.6
2023-10-09T20:14:00.114Z, 77.1
2023-10-09T20:16:00.374Z, 77.2
2023-10-09T20:18:00.200Z, 77.3
2023-10-09T20:20:00.634Z, 77.9
2023-10-09T20:22:00.115Z, 78.5
2023-10-09T20:24:00.129Z, 78.6
2023-10-09T20:26:00.168Z, 78.2
2023-10-09T20:28:00.072Z, 78.1
2023-10-09T20:30:00.157Z, 78.8
2023-10-09T20:32:00.172Z, 79.2
2023-10-09T20:34:00.158Z, 78.8
2023-10-09T20:36:00.446Z, 78.1
2023-10-09T20:38:00.371Z, 77.6
2023-10-09T20:40:00.730Z, 77.2
2023-10-09T20:42:00.179Z, 77.1
2023-10-09T20:44:00.181Z, 76.7
2023-10-09T20:46:00.432Z, 77.3
2023-10-09T20:48:00.267Z, 77.1
2023-10-09T20:50:00.224Z, 76.6
2023-10-09T20:52:00.119Z, 76.5
2023-10-09T20:54:00.111Z, 76.9
2023-10-09T20:56:00.161Z, 77.9
2023-10-09T20:58:00.173Z, 78.6
2023-10-09T21:00:00.162Z, 78.7
2023-10-09T21:02:00.245Z, 78.7
2023-10-09T21:04:00.203Z, 78
2023-10-09T21:06:00.194Z, 78.2
2023-10-09T21:08:00.173Z, 78
2023-10-09T21:10:00.129Z, 78.2
2023-10-09T21:12:00.144Z, 78
2023-10-09T21:14:00.141Z, 78.3
2023-10-09T21:16:00.154Z, 78.6
2023-10-09T21:18:00.397Z, 78.9
2023-10-09T21:20:00.186Z, 79.6
2023-10-09T21:22:00.084Z, 80
2023-10-09T21:24:00.154Z, 79.9
2023-10-09T21:26:00.121Z, 79.5
2023-10-09T21:28:00.088Z, 79.5
2023-10-09T21:30:00.125Z, 79.6
2023-10-09T21:32:00.198Z, 79.9
2023-10-09T21:34:00.329Z, 80
2023-10-09T21:36:00.132Z, 79.2
2023-10-09T21:38:00.153Z, 78.8
2023-10-09T21:40:00.113Z, 79
2023-10-09T21:42:00.137Z, 79.4
2023-10-09T21:44:00.126Z, 80.1
2023-10-09T21:46:00.165Z, 80.5
2023-10-09T21:48:00.164Z, 80.6
2023-10-09T21:50:00.210Z, 80.4
2023-10-09T21:52:00.088Z, 80.7
2023-10-09T21:54:00.113Z, 80.9
2023-10-09T21:56:00.161Z, 81.2
2023-10-09T21:58:00.113Z, 81.2
2023-10-09T22:00:00.128Z, 80.8
2023-10-09T22:02:00.317Z, 80.1
2023-10-09T22:04:00.209Z, 80.7
2023-10-09T22:06:00.228Z, 80.5
2023-10-09T22:08:00.171Z, 80.9
2023-10-09T22:10:00.128Z, 81.1
2023-10-09T22:12:00.128Z, 80.9
2023-10-09T22:14:00.141Z, 81.1
2023-10-09T22:16:00.100Z, 81
2023-10-09T22:18:00.396Z, 81.7
2023-10-09T22:20:00.295Z, 82.4
2023-10-09T22:22:00.249Z, 82.5
2023-10-09T22:24:00.143Z, 82.3
2023-10-09T22:26:00.137Z, 81.9
2023-10-09T22:28:00.111Z, 82.2
2023-10-09T22:30:00.178Z, 82.3
2023-10-09T22:32:00.223Z, 82.3
2023-10-09T22:34:00.101Z, 82.4
2023-10-09T22:36:00.110Z, 82.2
2023-10-09T22:38:00.137Z, 81.9
2023-10-09T22:40:00.183Z, 82.4
2023-10-09T22:42:00.116Z, 82.7
2023-10-09T22:44:00.133Z, 82.3
2023-10-09T22:46:00.119Z, 82.7
2023-10-09T22:48:00.168Z, 82.8
2023-10-09T22:50:00.123Z, 83.3
2023-10-09T22:52:00.083Z, 82.9
2023-10-09T22:54:00.129Z, 82.4
2023-10-09T22:56:00.161Z, 83.2
2023-10-09T22:58:00.107Z, 83.3
2023-10-09T23:00:00.182Z, 83
2023-10-09T23:02:00.271Z, 84.6
2023-10-09T23:04:00.218Z, 84.6
2023-10-09T23:06:00.238Z, 83.1
2023-10-09T23:08:00.513Z, 81.4
2023-10-09T23:10:00.101Z, 81.7
2023-10-09T23:12:00.157Z, 81.8
2023-10-09T23:14:00.159Z, 82.3
2023-10-09T23:16:00.137Z, 83.4
2023-10-09T23:18:00.147Z, 83.5
2023-10-09T23:20:00.184Z, 83.7
2023-10-09T23:22:00.131Z, 83.8
2023-10-09T23:24:00.105Z, 84.7
2023-10-09T23:26:00.160Z, 85.2
2023-10-09T23:28:00.487Z, 86.1
2023-10-09T23:30:00.133Z, 86
2023-10-09T23:32:00.234Z, 86.6
2023-10-09T23:34:00.084Z, 86.1
2023-10-09T23:36:00.107Z, 85.9
2023-10-09T23:38:00.150Z, 85.8
2023-10-09T23:40:00.105Z, 85.3
2023-10-09T23:42:00.434Z, 84.5
2023-10-09T23:44:00.152Z, 83.2
2023-10-09T23:46:00.126Z, 82.3
2023-10-09T23:48:00.186Z, 82.5
2023-10-09T23:50:00.183Z, 82.9
2023-10-09T23:52:00.108Z, 82.1
2023-10-09T23:54:00.106Z, 84.6
2023-10-09T23:56:00.115Z, 87.4
2023-10-09T23:58:00.130Z, 86.7
